Archer, Wyoming
Current Conditions -  °F | °C
As of 1:53 AM on Friday 24 Oct 2014 (Local Time) from KCYS Reporting Station
Clear Clear  
Wind Chill: 50°   Ceiling: Unl
Heat Index: 50°   Visibility: 10mi
Dew Point: 30°   Wind: 12mph
Humidity: 46%   Direction: 280°W
Pressure: 30.16"   Gusts: NA
Location:  41.4091°N, 104.861°W
Report Text: KCYS 240753Z AUTO 28010KT 10SM CLR 10/M01 A3016 RMK AO2 SLP149 T01001011
Loading
Personal Weather Stations






























Interactive Weather Map
Tropical Storm Tracking
New forecast layout! Learn more

10-Day Weather Forecast

Advertisements
Track Severe Weather on mobile